Time;durP1;ratioP1;P1;durP2;ratioP2;P2;SDS_P1;SDS_P2;PMS_P1;PMS_P2;Temp;Humidity;BMP_temperature;BMP_pressure;BME280_temperature;BME280_humidity;BME280_pressure;Samples;Min_cycle;Max_cycle;Signal;HPM_P1;HPM_P2
2023/02/10 00:02:22;;;;;;;;;76.50;52.25;;;;;6.65;100.00;103479.13;5034745;28;56087;-81
2023/02/10 00:04:48;;;;;;;;;83.50;57.00;;;;;6.63;100.00;103483.41;5019306;28;45338;-81
2023/02/10 00:07:13;;;;;;;;;77.75;56.50;;;;;6.59;100.00;103476.34;5036766;28;45255;-81
2023/02/10 00:09:39;;;;;;;;;76.50;56.75;;;;;6.62;100.00;103480.75;5036854;28;45508;-81
2023/02/10 00:12:04;;;;;;;;;79.00;54.25;;;;;6.61;100.00;103490.19;5018038;28;63153;-81
2023/02/10 00:14:30;;;;;;;;;80.00;58.00;;;;;6.68;100.00;103494.75;5036686;28;45221;-81
2023/02/10 00:16:56;;;;;;;;;73.00;56.00;;;;;6.60;100.00;103478.09;5036433;28;45425;-80
2023/02/10 00:19:24;;;;;;;;;88.50;56.50;;;;;6.68;100.00;103486.13;5036873;28;45443;-80
2023/02/10 00:21:49;;;;;;;;;76.50;56.25;;;;;6.67;100.00;103482.66;5036357;28;45454;-81
2023/02/10 00:24:15;;;;;;;;;81.75;58.25;;;;;6.68;100.00;103478.34;5017438;28;45423;-82
2023/02/10 00:26:40;;;;;;;;;78.50;57.25;;;;;6.61;100.00;103466.03;5018638;28;45471;-81
2023/02/10 00:29:05;;;;;;;;;78.25;59.25;;;;;6.62;100.00;103463.50;5036140;28;45383;-81
2023/02/10 00:31:31;;;;;;;;;77.75;57.00;;;;;6.67;100.00;103474.88;5017267;28;60759;-80
2023/02/10 00:33:56;;;;;;;;;78.75;59.25;;;;;6.65;100.00;103473.06;5036214;28;45352;-81
2023/02/10 00:36:24;;;;;;;;;77.00;55.75;;;;;6.64;100.00;103472.19;5035405;28;62133;-81
2023/02/10 00:38:49;;;;;;;;;79.00;59.00;;;;;6.54;100.00;103457.22;5036184;28;45440;-81
2023/02/10 00:41:16;;;;;;;;;82.25;56.50;;;;;6.67;100.00;103469.72;5035148;28;69539;-81
2023/02/10 00:43:43;;;;;;;;;77.25;56.25;;;;;6.62;100.00;103460.03;5035907;28;45939;-81
2023/02/10 00:46:09;;;;;;;;;68.00;50.50;;;;;6.69;100.00;103481.00;5018117;28;45419;-81
2023/02/10 00:48:34;;;;;;;;;78.75;60.75;;;;;6.66;100.00;103467.94;5001604;28;45646;-82
2023/02/10 00:51:00;;;;;;;;;87.25;61.00;;;;;6.67;100.00;103477.47;5035798;28;47078;-81
2023/02/10 00:53:25;;;;;;;;;82.00;61.50;;;;;6.65;100.00;103473.97;5017655;28;45375;-81
2023/02/10 00:55:51;;;;;;;;;74.25;57.50;;;;;6.68;100.00;103468.00;5034499;28;45433;-81
2023/02/10 00:58:16;;;;;;;;;87.75;61.50;;;;;6.70;100.00;103471.50;5035046;28;62761;-81
2023/02/10 01:00:41;;;;;;;;;76.50;58.75;;;;;6.75;100.00;103472.53;5017854;28;45994;-81
2023/02/10 01:03:07;;;;;;;;;87.25;61.50;;;;;6.77;100.00;103476.91;5034962;28;66826;-81
2023/02/10 01:05:32;;;;;;;;;81.50;59.75;;;;;6.73;100.00;103461.25;5017122;28;67628;-81
2023/02/10 01:07:58;;;;;;;;;89.50;62.00;;;;;6.75;100.00;103476.00;5034636;28;65118;-81
2023/02/10 01:10:23;;;;;;;;;80.00;60.00;;;;;6.78;100.00;103477.81;5035072;28;46257;-81
2023/02/10 01:12:49;;;;;;;;;85.75;58.00;;;;;6.77;100.00;103473.44;5035497;28;45351;-81
2023/02/10 01:15:14;;;;;;;;;79.25;61.25;;;;;6.74;100.00;103463.91;5017505;28;45261;-81
2023/02/10 01:17:40;;;;;;;;;73.25;57.00;;;;;6.78;100.00;103468.31;5018084;28;45308;-81
2023/02/10 01:20:06;;;;;;;;;78.75;60.00;;;;;6.76;100.00;103462.22;5016957;28;65206;-81
2023/02/10 01:22:32;;;;;;;;;86.25;61.25;;;;;6.82;100.00;103478.78;5017641;28;45326;-80
2023/02/10 01:24:58;;;;;;;;;71.75;52.75;;;;;6.82;100.00;103473.59;5017638;28;45456;-81
2023/02/10 01:27:23;;;;;;;;;77.75;55.75;;;;;6.81;100.00;103471.84;5016822;28;63977;-81
2023/02/10 01:29:49;;;;;;;;;81.00;59.00;;;;;6.74;100.00;103463.91;5034870;28;47181;-81
2023/02/10 01:32:14;;;;;;;;;74.75;52.75;;;;;6.75;100.00;103462.19;5035220;28;45447;-81
2023/02/10 01:34:39;;;;;;;;;81.25;61.25;;;;;6.75;100.00;103465.63;5035920;28;60686;-80
2023/02/10 01:37:04;;;;;;;;;82.25;59.00;;;;;6.79;100.00;103471.78;5038287;28;53253;-81
2023/02/10 01:39:30;;;;;;;;;76.75;57.00;;;;;6.79;100.00;103466.59;5038159;28;65321;-81
2023/02/10 01:41:55;;;;;;;;;79.50;58.00;;;;;6.82;100.00;103476.19;5037895;28;63350;-80
2023/02/10 01:44:20;;;;;;;;;83.25;58.75;;;;;6.87;100.00;103478.09;5042028;28;57138;-81
2023/02/10 01:46:46;;;;;;;;;85.00;61.25;;;;;6.87;100.00;103474.59;5042036;28;44903;-81
2023/02/10 01:49:15;;;;;;;;;80.00;60.25;;;;;6.83;100.00;103470.16;5038843;28;45477;-80
2023/02/10 01:52:03;;;;;;;;;83.50;58.25;;;;;6.90;100.00;103482.47;5020704;28;45717;-81
2023/02/10 01:54:40;;;;;;;;;73.75;60.00;;;;;6.84;100.00;103471.94;5020725;28;45595;-81
2023/02/10 01:57:05;;;;;;;;;72.50;56.75;;;;;6.85;100.00;103471.09;5003793;28;45606;-80
2023/02/10 01:59:32;;;;;;;;;84.75;57.75;;;;;6.93;100.00;103485.16;5037786;28;64400;-81
2023/02/10 02:02:00;;;;;;;;;81.00;59.75;;;;;6.87;100.00;103480.69;5020761;28;45845;-81
2023/02/10 02:04:26;;;;;;;;;74.00;56.00;;;;;6.88;100.00;103481.56;5020724;28;45396;-81
2023/02/10 02:06:51;;;;;;;;;81.75;57.50;;;;;6.92;100.00;103493.75;5038531;28;45453;-81
2023/02/10 02:09:17;;;;;;;;;85.50;59.50;;;;;6.91;100.00;103485.13;5019759;28;65708;-81
2023/02/10 02:11:55;;;;;;;;;79.50;58.00;;;;;6.92;100.00;103486.00;5037233;28;67636;-80
2023/02/10 02:14:24;;;;;;;;;79.25;59.50;;;;;6.94;100.00;103482.59;5020682;28;45312;-81
2023/02/10 02:17:07;;;;;;;;;78.25;53.75;;;;;6.96;100.00;103478.38;5038463;28;45307;-81
2023/02/10 02:20:40;;;;;;;;;72.75;56.25;;;;;6.94;100.00;103471.38;5038253;28;46446;-81
2023/02/10 02:22:59;;;;;;;;;66.00;52.00;;;;;6.94;100.00;103477.41;5023342;28;45446;-80
2023/02/10 02:25:36;;;;;;;;;77.00;56.00;;;;;6.94;100.00;103480.00;5038251;28;45526;-81
2023/02/10 02:28:13;;;;;;;;;78.75;56.75;;;;;6.97;100.00;103477.53;5037859;28;45235;-79
2023/02/10 02:31:05;;;;;;;;;73.50;54.50;;;;;7.01;100.00;103481.09;5020128;28;48358;-81
2023/02/10 02:33:40;;;;;;;;;74.00;53.00;;;;;7.01;100.00;103475.91;5006083;28;45851;-81
2023/02/10 02:36:17;;;;;;;;;68.25;55.50;;;;;6.94;100.00;103464.47;5020368;28;45427;-81
2023/02/10 02:38:42;;;;;;;;;68.25;53.50;;;;;6.93;100.00;103457.56;5020375;28;45536;-81
2023/02/10 02:41:09;;;;;;;;;73.25;54.75;;;;;6.97;100.00;103468.88;5019180;28;59237;-81
2023/02/10 02:43:35;;;;;;;;;71.00;53.50;;;;;7.01;100.00;103473.31;5020079;28;45968;-81
2023/02/10 02:46:17;;;;;;;;;74.25;53.00;;;;;7.04;100.00;103476.00;5019155;28;45423;-81
2023/02/10 02:48:48;;;;;;;;;67.00;48.50;;;;;7.08;100.00;103482.16;5020040;28;45391;-81
2023/02/10 02:51:27;;;;;;;;;71.50;50.00;;;;;7.13;100.00;103489.22;5037590;28;46472;-80
2023/02/10 02:54:05;;;;;;;;;72.75;51.50;;;;;7.20;100.00;103482.50;5037587;28;45389;-81
2023/02/10 02:56:33;;;;;;;;;69.75;50.25;;;;;7.24;100.00;103494.69;5019785;28;45405;-80
2023/02/10 02:59:17;;;;;;;;;68.00;51.50;;;;;7.24;100.00;103492.09;5037765;28;45575;-81
2023/02/10 03:01:46;;;;;;;;;75.75;50.75;;;;;7.26;100.00;103486.97;5019777;28;45422;-81
2023/02/10 03:04:13;;;;;;;;;78.00;52.00;;;;;7.25;100.00;103480.94;5019816;28;45290;-81
2023/02/10 03:06:39;;;;;;;;;67.50;50.00;;;;;7.27;100.00;103480.97;5019756;28;45430;-80
2023/02/10 03:09:04;;;;;;;;;72.75;53.00;;;;;7.31;100.00;103480.22;5037116;28;45419;-81
2023/02/10 03:11:30;;;;;;;;;76.00;55.50;;;;;7.31;100.00;103475.91;5019169;28;46005;-81
2023/02/10 03:13:55;;;;;;;;;75.50;51.50;;;;;7.39;100.00;103478.72;5018858;28;62942;-81
2023/02/10 03:16:21;;;;;;;;;71.50;53.00;;;;;7.36;100.00;103479.50;5036649;28;64705;-81
2023/02/10 03:18:46;;;;;;;;;69.25;53.00;;;;;7.40;100.00;103474.44;5037247;28;45533;-81
2023/02/10 03:21:11;;;;;;;;;68.25;52.25;;;;;7.42;100.00;103478.81;5036324;28;63599;-80
2023/02/10 03:23:37;;;;;;;;;69.25;54.25;;;;;7.46;100.00;103482.38;5037272;28;52029;-81
2023/02/10 03:26:02;;;;;;;;;67.25;52.25;;;;;7.44;100.00;103481.44;5019273;28;45432;-81
2023/02/10 03:28:28;;;;;;;;;79.75;55.25;;;;;7.43;100.00;103484.88;5024877;28;45384;-80
2023/02/10 03:30:55;;;;;;;;;71.50;53.50;;;;;7.40;100.00;103480.47;5039678;28;45450;-81
2023/02/10 03:33:20;;;;;;;;;67.25;50.50;;;;;7.39;100.00;103483.91;5037260;28;45911;-80
2023/02/10 03:35:46;;;;;;;;;78.00;54.25;;;;;7.42;100.00;103489.19;5037341;28;45319;-80
2023/02/10 03:38:12;;;;;;;;;68.25;50.00;;;;;7.35;100.00;103472.59;5037238;28;45497;-80
2023/02/10 03:40:38;;;;;;;;;73.25;52.50;;;;;7.41;100.00;103478.75;5018747;28;46392;-81
2023/02/10 03:43:03;;;;;;;;;71.00;50.25;;;;;7.35;100.00;103472.59;5019319;28;45414;-81
2023/02/10 03:45:28;;;;;;;;;62.50;47.75;;;;;7.40;100.00;103467.53;5036931;28;45382;-81
2023/02/10 03:47:54;;;;;;;;;66.00;47.00;;;;;7.43;100.00;103472.81;5036678;28;48607;-81
2023/02/10 03:50:20;;;;;;;;;72.25;51.75;;;;;7.46;100.00;103480.66;5018572;28;45400;-81
2023/02/10 03:52:45;;;;;;;;;64.25;49.75;;;;;7.43;100.00;103470.22;5018840;28;45528;-80
2023/02/10 03:55:14;;;;;;;;;61.50;46.25;;;;;7.45;100.00;103478.91;5036641;28;45418;-80
2023/02/10 03:57:40;;;;;;;;;60.00;45.75;;;;;7.45;100.00;103478.03;5019455;28;45391;-81
2023/02/10 04:00:06;;;;;;;;;61.75;44.00;;;;;7.38;100.00;103471.78;5018694;28;45413;-81
2023/02/10 04:02:31;;;;;;;;;64.50;44.00;;;;;7.33;100.00;103463.88;5018841;28;45297;-80
2023/02/10 04:04:56;;;;;;;;;55.25;41.00;;;;;7.40;100.00;103483.06;5036285;28;55368;-81
2023/02/10 04:07:22;;;;;;;;;54.25;41.50;;;;;7.40;100.00;103480.47;5035853;28;63630;-81
2023/02/10 04:09:47;;;;;;;;;55.50;41.25;;;;;7.38;100.00;103464.00;5036167;28;46718;-81
2023/02/10 04:12:12;;;;;;;;;53.25;41.00;;;;;7.40;100.00;103466.66;5036455;28;45384;-81
2023/02/10 04:14:38;;;;;;;;;50.75;41.25;;;;;7.50;100.00;103481.59;5036140;28;60113;-81
2023/02/10 04:17:03;;;;;;;;;51.25;39.75;;;;;7.47;100.00;103481.53;5035665;28;62286;-80
2023/02/10 04:19:28;;;;;;;;;46.00;35.75;;;;;7.48;100.00;103483.28;5035449;28;68944;-81
2023/02/10 04:21:54;;;;;;;;;44.00;32.50;;;;;7.47;100.00;103472.06;5017624;28;56525;-80
2023/02/10 04:24:19;;;;;;;;;56.50;39.50;;;;;7.50;100.00;103484.19;5036290;28;45382;-81
2023/02/10 04:26:45;;;;;;;;;46.75;35.25;;;;;7.52;100.00;103488.63;5036487;28;45453;-81
2023/02/10 04:29:10;;;;;;;;;46.00;38.50;;;;;7.56;100.00;103499.94;5018322;28;45597;-81
2023/02/10 04:31:35;;;;;;;;;21.25;10.75;;;;;7.58;100.00;103508.66;5035479;28;63638;-81
2023/02/10 04:34:01;;;;;;;;;48.75;37.75;;;;;7.55;100.00;103503.38;5018109;28;45453;-81
2023/02/10 04:36:26;;;;;;;;;52.75;40.50;;;;;7.52;100.00;103496.38;5035689;28;45467;-81
2023/02/10 04:38:51;;;;;;;;;66.25;42.75;;;;;7.56;100.00;103510.31;5035984;28;45591;-81
2023/02/10 04:41:17;;;;;;;;;63.00;47.50;;;;;7.62;100.00;103517.38;5017806;28;52252;-81
2023/02/10 04:43:42;;;;;;;;;58.75;43.25;;;;;7.63;100.00;103521.72;5036200;28;45300;-81
2023/02/10 04:46:07;;;;;;;;;61.75;46.75;;;;;7.56;100.00;103500.81;5018496;28;45374;-81
2023/02/10 04:48:34;;;;;;;;;57.00;44.00;;;;;7.63;100.00;103511.34;5035612;28;46159;-81
2023/02/10 04:51:00;;;;;;;;;62.75;44.00;;;;;7.63;100.00;103511.34;4997606;28;45316;-80
2023/02/10 04:53:25;;;;;;;;;62.25;41.25;;;;;7.62;100.00;103514.78;4998032;28;45552;-81
2023/02/10 04:55:51;;;;;;;;;60.50;43.25;;;;;7.62;100.00;103518.25;5016316;28;45313;-81
2023/02/10 04:58:16;;;;;;;;;66.75;44.50;;;;;7.61;100.00;103516.47;5015505;28;46310;-80
2023/02/10 05:00:41;;;;;;;;;62.25;48.25;;;;;7.54;100.00;103509.38;5015798;28;45474;-80
2023/02/10 05:03:07;;;;;;;;;67.75;46.75;;;;;7.50;100.00;103503.25;5015939;28;45529;-80
2023/02/10 05:05:32;;;;;;;;;67.50;47.75;;;;;7.58;100.00;103513.81;5014820;28;62445;-80
2023/02/10 05:07:57;;;;;;;;;74.50;47.75;;;;;7.53;100.00;103513.69;5014955;28;65670;-81
2023/02/10 05:10:23;;;;;;;;;58.50;41.50;;;;;7.56;100.00;103515.50;5014021;28;67498;-80
2023/02/10 05:12:48;;;;;;;;;68.00;45.50;;;;;7.52;100.00;103509.34;5014864;28;63545;-81
2023/02/10 05:15:14;;;;;;;;;62.75;46.25;;;;;7.52;100.00;103506.75;5020937;28;62817;-80
2023/02/10 05:17:40;;;;;;;;;64.75;44.00;;;;;7.60;100.00;103511.28;5016607;28;46522;-80
2023/02/10 05:20:05;;;;;;;;;55.00;40.25;;;;;7.53;100.00;103498.13;5015266;28;45375;-80
2023/02/10 05:22:31;;;;;;;;;59.75;40.75;;;;;7.45;100.00;103496.19;5015639;28;45299;-81
2023/02/10 05:24:57;;;;;;;;;56.75;42.50;;;;;7.55;100.00;103512.00;4997865;28;45360;-81
2023/02/10 05:27:25;;;;;;;;;41.00;37.50;;;;;7.54;100.00;103512.84;5015193;28;45324;-80
2023/02/10 05:29:50;;;;;;;;;43.75;39.25;;;;;7.54;100.00;103514.56;4997844;28;46790;-80
2023/02/10 05:32:15;;;;;;;;;43.75;32.75;;;;;7.56;100.00;103524.16;5014877;28;62050;-81
2023/02/10 05:34:41;;;;;;;;;51.00;40.75;;;;;7.55;100.00;103517.19;5014297;28;63043;-81
2023/02/10 05:37:06;;;;;;;;;48.25;37.50;;;;;7.56;100.00;103520.69;5015570;28;46453;-80
2023/02/10 05:39:32;;;;;;;;;50.25;35.75;;;;;7.56;100.00;103523.28;5035318;28;45288;-81
2023/02/10 05:41:58;;;;;;;;;44.75;37.50;;;;;7.56;100.00;103529.34;5034259;28;65272;-80
2023/02/10 05:44:25;;;;;;;;;47.25;34.50;;;;;7.55;100.00;103524.09;5017382;28;45468;-81
2023/02/10 05:46:51;;;;;;;;;37.50;32.75;;;;;7.54;100.00;103533.59;5035009;28;45457;-81
2023/02/10 05:49:16;;;;;;;;;46.50;33.25;;;;;7.52;100.00;103529.19;5034442;28;45462;-80
2023/02/10 05:51:42;;;;;;;;;36.00;31.50;;;;;7.52;100.00;103534.38;5017459;28;45438;-80
2023/02/10 05:54:08;;;;;;;;;52.00;33.50;;;;;7.51;100.00;103532.63;5017076;28;45607;-81
2023/02/10 05:56:33;;;;;;;;;42.00;33.75;;;;;7.42;100.00;103520.28;5017061;28;46192;-80
2023/02/10 05:58:59;;;;;;;;;42.50;32.75;;;;;7.48;100.00;103533.41;5035019;28;45391;-81
2023/02/10 06:01:24;;;;;;;;;33.75;28.00;;;;;7.45;100.00;103537.66;5016688;28;55450;-81
2023/02/10 06:03:49;;;;;;;;;46.00;33.25;;;;;7.47;100.00;103542.03;5017014;28;45454;-80
2023/02/10 06:06:15;;;;;;;;;39.50;30.50;;;;;7.48;100.00;103546.34;5015967;28;71174;-81
2023/02/10 06:08:40;;;;;;;;;40.25;29.75;;;;;7.42;100.00;103540.13;5016108;28;66098;-80
2023/02/10 06:11:06;;;;;;;;;46.00;30.25;;;;;7.39;100.00;103538.31;5016189;28;63980;-81
2023/02/10 06:13:31;;;;;;;;;29.50;21.00;;;;;7.45;100.00;103545.41;5017133;28;45364;-81
2023/02/10 06:15:56;;;;;;;;;41.00;30.75;;;;;7.44;100.00;103547.13;5015949;28;67855;-81
2023/02/10 06:18:22;;;;;;;;;35.50;30.75;;;;;7.46;100.00;103548.03;5034252;28;45311;-81
2023/02/10 06:20:47;;;;;;;;;36.50;29.75;;;;;7.36;100.00;103527.88;5016112;28;63832;-81
2023/02/10 06:23:13;;;;;;;;;34.75;27.75;;;;;7.40;100.00;103541.81;5020077;28;45582;-81
2023/02/10 06:25:39;;;;;;;;;43.25;30.75;;;;;7.44;100.00;103548.84;5037582;28;59986;-81
2023/02/10 06:28:04;;;;;;;;;32.00;27.75;;;;;7.40;100.00;103537.50;5037827;28;45434;-81
2023/02/10 06:30:29;;;;;;;;;39.75;30.25;;;;;7.39;100.00;103540.03;5020734;28;45356;-81
2023/02/10 06:32:55;;;;;;;;;37.25;25.25;;;;;7.42;100.00;103543.59;5037663;28;45374;-80
2023/02/10 06:35:20;;;;;;;;;29.25;22.00;;;;;7.43;100.00;103550.56;5037018;28;61451;-81
2023/02/10 06:37:45;;;;;;;;;29.00;25.25;;;;;7.49;100.00;103549.84;5037822;28;45342;-81
2023/02/10 06:40:12;;;;;;;;;38.75;26.75;;;;;7.50;100.00;103547.31;5037913;28;45425;-81
2023/02/10 06:42:38;;;;;;;;;32.50;24.75;;;;;7.39;100.00;103534.84;5037976;28;45349;-81
2023/02/10 06:45:04;;;;;;;;;31.50;24.75;;;;;7.42;100.00;103548.78;5003233;28;47369;-80
2023/02/10 06:47:29;;;;;;;;;29.75;20.25;;;;;7.41;100.00;103543.53;5037328;28;45362;-81
2023/02/10 06:49:54;;;;;;;;;27.25;22.00;;;;;7.38;100.00;103546.94;5019813;28;45388;-81
2023/02/10 06:52:21;;;;;;;;;27.75;23.25;;;;;7.41;100.00;103554.81;5019957;28;45352;-80
2023/02/10 06:54:46;;;;;;;;;33.25;25.25;;;;;7.37;100.00;103537.41;5019779;28;46530;-81
2023/02/10 06:57:11;;;;;;;;;28.75;23.00;;;;;7.43;100.00;103549.66;5019167;28;60026;-81
2023/02/10 06:59:37;;;;;;;;;38.50;28.25;;;;;7.39;100.00;103540.91;5037514;28;45400;-81
2023/02/10 07:02:02;;;;;;;;;28.00;15.50;;;;;7.39;100.00;103550.41;5058557;28;62774;-80
2023/02/10 07:04:28;;;;;;;;;30.75;23.25;;;;;7.45;100.00;103546.28;5039374;28;47347;-80
2023/02/10 07:06:54;;;;;;;;;33.25;23.00;;;;;7.47;100.00;103562.75;5020161;28;45433;-80
2023/02/10 07:09:19;;;;;;;;;36.75;23.00;;;;;7.49;100.00;103560.22;5037797;28;45395;-80
2023/02/10 07:11:44;;;;;;;;;41.00;29.25;;;;;7.50;100.00;103560.28;5037167;28;65450;-80
2023/02/10 07:14:10;;;;;;;;;32.25;26.25;;;;;7.50;100.00;103559.38;5019023;28;64486;-80
2023/02/10 07:16:35;;;;;;;;;29.75;22.50;;;;;7.51;100.00;103563.72;5037162;28;45454;-81
2023/02/10 07:19:00;;;;;;;;;32.75;24.50;;;;;7.51;100.00;103574.09;5036922;28;62678;-80
2023/02/10 07:21:26;;;;;;;;;29.00;20.00;;;;;7.48;100.00;103567.09;5018936;28;60012;-81
2023/02/10 07:23:51;;;;;;;;;30.25;23.25;;;;;7.50;100.00;103572.31;5037240;28;45395;-80
2023/02/10 07:26:17;;;;;;;;;35.50;21.75;;;;;7.50;100.00;103569.72;5019300;28;45418;-81
2023/02/10 07:28:43;;;;;;;;;28.00;22.25;;;;;7.58;100.00;103581.22;5037063;28;45334;-81
2023/02/10 07:31:09;;;;;;;;;31.00;22.00;;;;;7.56;100.00;103578.59;5036793;28;45284;-81
2023/02/10 07:33:34;;;;;;;;;28.00;23.50;;;;;7.51;100.00;103569.78;5018847;28;47638;-81
2023/02/10 07:36:01;;;;;;;;;35.50;22.00;;;;;7.47;100.00;103567.94;5036333;28;66110;-81
2023/02/10 07:38:27;;;;;;;;;35.00;23.50;;;;;7.54;100.00;103574.16;5037114;28;45346;-81
2023/02/10 07:40:52;;;;;;;;;28.50;26.00;;;;;7.58;100.00;103589.00;5037254;28;45420;-81
2023/02/10 07:43:17;;;;;;;;;32.25;23.00;;;;;7.58;100.00;103586.41;5018348;28;64325;-80
2023/02/10 07:45:43;;;;;;;;;33.75;22.50;;;;;7.61;100.00;103589.06;5017920;28;66354;-80
2023/02/10 07:48:08;;;;;;;;;27.50;21.00;;;;;7.66;100.00;103595.28;5036856;28;45303;-81
2023/02/10 07:50:34;;;;;;;;;28.00;23.25;;;;;7.70;100.00;103593.66;5036572;28;45467;-81
2023/02/10 07:52:59;;;;;;;;;33.75;22.50;;;;;7.70;100.00;103599.72;5028733;28;66405;-81
2023/02/10 07:56:00;;;;;;;;;37.00;26.00;;;;;7.68;100.00;103592.72;5037643;28;45420;-93
2023/02/10 08:02:12;;;;;;;;;38.00;22.75;;;;;7.61;100.00;103583.00;4882449;29;45268;-90
2023/02/10 08:04:38;;;;;;;;;34.50;26.00;;;;;7.63;100.00;103571.84;4864527;29;47262;-89
2023/02/10 08:07:26;;;;;;;;;30.50;20.00;;;;;7.85;100.00;103609.63;4865431;29;50272;-91
2023/02/10 08:09:51;;;;;;;;;32.50;23.50;;;;;7.89;100.00;103608.00;4849391;29;45399;-87
2023/02/10 08:12:19;;;;;;;;;31.00;21.50;;;;;7.75;100.00;103584.28;4864152;29;45630;-86
2023/02/10 08:14:47;;;;;;;;;31.50;22.75;;;;;8.02;100.00;103623.06;4879201;29;47197;-86
2023/02/10 08:17:18;;;;;;;;;19.75;16.75;;;;;7.92;100.00;103598.59;4863705;29;45500;-88
2023/02/10 08:19:44;;;;;;;;;44.25;27.75;;;;;8.04;100.00;103608.47;4879916;29;45264;-88
2023/02/10 08:22:09;;;;;;;;;25.75;23.50;;;;;8.00;100.00;103598.81;4879986;29;45563;-86
2023/02/10 08:24:40;;;;;;;;;31.50;24.50;;;;;8.01;100.00;103603.19;4864933;29;46267;-90
2023/02/10 08:27:39;;;;;;;;;33.25;25.25;;;;;7.97;100.00;103592.66;4881820;29;45493;-89
2023/02/10 08:30:05;;;;;;;;;24.25;20.25;;;;;8.12;100.00;103624.25;4869931;29;45353;-86
2023/02/10 08:32:31;;;;;;;;;28.75;22.50;;;;;8.09;100.00;103617.22;4879084;29;45399;-83
2023/02/10 08:34:56;;;;;;;;;24.75;21.50;;;;;8.17;100.00;103620.03;4863370;29;45486;-81
2023/02/10 08:37:22;;;;;;;;;22.50;16.25;;;;;8.20;100.00;103624.44;4886433;28;45306;-82
2023/02/10 08:39:47;;;;;;;;;26.75;17.00;;;;;8.19;100.00;103612.28;4997658;28;45441;-85
2023/02/10 08:42:13;;;;;;;;;36.50;24.50;;;;;8.27;100.00;103629.84;5029023;28;60486;-83
2023/02/10 08:44:38;;;;;;;;;27.50;22.50;;;;;8.28;100.00;103620.31;5015526;28;45379;-82
2023/02/10 08:47:04;;;;;;;;;26.00;19.00;;;;;8.37;100.00;103630.06;5005648;28;63064;-80
2023/02/10 08:49:29;;;;;;;;;28.75;20.75;;;;;8.42;100.00;103632.00;5020035;28;50960;-81
2023/02/10 08:51:55;;;;;;;;;29.00;20.75;;;;;8.53;100.00;103630.56;5012507;28;61877;-81
2023/02/10 08:54:21;;;;;;;;;28.50;25.00;;;;;8.59;100.00;103634.16;5035222;28;46712;-81
2023/02/10 08:56:46;;;;;;;;;26.50;19.00;;;;;8.58;100.00;103627.19;5039133;28;45414;-80
2023/02/10 08:59:12;;;;;;;;;30.50;20.00;;;;;8.65;100.00;103629.09;5030722;28;45904;-80
2023/02/10 09:01:37;;;;;;;;;31.50;23.25;;;;;8.70;100.00;103628.38;5030848;28;45592;-80
2023/02/10 09:04:03;;;;;;;;;28.50;20.25;;;;;8.79;100.00;103630.34;5027477;28;45923;-79
2023/02/10 09:06:44;;;;;;;;;26.75;20.00;;;;;8.75;100.00;103615.53;5025038;28;45516;-80
2023/02/10 09:09:13;;;;;;;;;26.25;20.50;;;;;8.81;100.00;103632.97;5006868;28;45915;-80
2023/02/10 09:11:39;;;;;;;;;18.25;17.25;;;;;8.75;100.00;103622.41;5047346;28;45593;-81
2023/02/10 09:14:04;;;;;;;;;26.50;18.00;;;;;8.83;100.00;103631.28;4987246;28;55627;-81
2023/02/10 09:16:29;;;;;;;;;24.00;21.25;;;;;8.77;100.00;103607.78;4985786;28;63965;-82
2023/02/10 09:18:55;;;;;;;;;30.25;16.75;;;;;8.89;100.00;103619.31;5011461;28;53557;-80
2023/02/10 09:21:20;;;;;;;;;21.50;17.00;;;;;8.96;100.00;103633.34;4999802;28;45948;-80
2023/02/10 09:23:45;;;;;;;;;26.75;20.50;;;;;8.99;100.00;103628.22;5009754;28;46359;-80
2023/02/10 09:26:11;;;;;;;;;18.50;17.00;;;;;9.10;100.00;103631.97;5028828;28;49922;-80
2023/02/10 09:28:36;;;;;;;;;28.50;18.50;;;;;9.17;100.00;103626.91;5028143;28;61827;-80
2023/02/10 09:31:05;;;;;;;;;8.50;6.50;;;;;9.23;100.00;103632.22;5011585;28;45394;-81
2023/02/10 09:33:30;;;;;;;;;10.00;5.50;;;;;9.26;100.00;103627.97;5028728;28;45899;-81
2023/02/10 09:35:56;;;;;;;;;27.50;19.50;;;;;9.28;100.00;103618.50;5003775;28;45521;-81
2023/02/10 09:38:21;;;;;;;;;18.50;18.25;;;;;9.26;100.00;103622.78;5003877;28;45565;-82
2023/02/10 09:40:56;;;;;;;;;21.50;18.00;;;;;9.35;100.00;103629.91;5009612;28;45970;-82
2023/02/10 09:43:40;;;;;;;;;25.50;18.75;;;;;9.43;100.00;103630.09;5027296;28;47364;-82
2023/02/10 09:46:31;;;;;;;;;20.50;15.25;;;;;9.44;100.00;103618.84;5003932;28;45953;-83
2023/02/10 09:49:20;;;;;;;;;24.50;17.75;;;;;9.55;100.00;103642.50;4935042;28;45479;-83
2023/02/10 09:52:05;;;;;;;;;26.25;18.75;;;;;9.47;100.00;103632.81;4957781;28;45686;-83
2023/02/10 09:54:32;;;;;;;;;20.00;17.75;;;;;9.49;100.00;103635.44;4929643;28;46296;-81
2023/02/10 09:57:08;;;;;;;;;31.00;18.00;;;;;9.59;100.00;103641.72;4934981;28;46076;-82
2023/02/10 09:59:35;;;;;;;;;24.50;19.75;;;;;9.61;100.00;103627.00;4951640;28;45918;-83
2023/02/10 10:02:11;;;;;;;;;19.00;13.00;;;;;9.63;100.00;103623.59;4949094;28;56720;-81
2023/02/10 10:04:37;;;;;;;;;13.75;13.75;;;;;9.74;100.00;103635.97;4930187;28;47355;-82
2023/02/10 10:07:24;;;;;;;;;18.75;13.25;;;;;9.85;100.00;103653.53;4937422;28;69087;-82
2023/02/10 10:10:02;;;;;;;;;26.25;21.25;;;;;9.91;100.00;103644.09;4936587;28;45692;-82
2023/02/10 10:12:28;;;;;;;;;19.75;16.75;;;;;9.96;100.00;103643.34;4944985;28;45568;-83
2023/02/10 10:14:53;;;;;;;;;22.00;16.00;;;;;9.88;100.00;103625.00;4943389;28;46713;-82
2023/02/10 10:17:29;;;;;;;;;23.75;17.25;;;;;10.04;100.00;103651.31;4934898;28;45448;-82
2023/02/10 10:20:13;;;;;;;;;27.00;19.75;;;;;10.21;100.00;103662.03;4964330;28;45855;-83
2023/02/10 10:23:18;;;;;;;;;23.50;17.75;;;;;10.26;100.00;103648.25;4960135;28;45456;-82
2023/02/10 10:25:53;;;;;;;;;22.50;14.25;;;;;10.39;100.00;103654.63;4989637;28;45481;-82
2023/02/10 10:28:34;;;;;;;;;22.75;17.25;;;;;10.50;98.42;103660.03;5031259;28;45289;-82
2023/02/10 10:31:17;;;;;;;;;24.75;15.00;;;;;10.63;99.52;103666.34;4994024;28;45537;-82
2023/02/10 10:33:45;;;;;;;;;22.25;17.75;;;;;10.74;99.06;103669.13;5040876;28;45310;-83
2023/02/10 10:36:22;;;;;;;;;22.25;16.75;;;;;10.85;100.00;103665.84;5021206;28;48366;-83
2023/02/10 10:38:53;;;;;;;;;22.00;18.50;;;;;10.85;99.79;103651.94;5042465;28;45487;-82
2023/02/10 10:41:24;;;;;;;;;26.00;19.00;;;;;10.91;99.36;103653.78;5030271;28;45455;-83
2023/02/10 10:43:52;;;;;;;;;25.00;15.50;;;;;11.00;100.00;103656.53;4999754;28;45558;-83
2023/02/10 10:46:28;;;;;;;;;25.50;19.00;;;;;11.13;98.61;103679.31;5013796;28;45883;-82
2023/02/10 10:48:54;;;;;;;;;25.75;17.25;;;;;11.05;98.40;103670.53;5025659;28;45794;-82
2023/02/10 10:51:19;;;;;;;;;25.00;21.00;;;;;10.84;98.26;103661.47;5023211;28;45548;-81
2023/02/10 10:53:48;;;;;;;;;22.75;19.50;;;;;10.85;98.55;103671.06;5003739;28;45408;-82
2023/02/10 10:56:44;;;;;;;;;26.50;20.00;;;;;10.82;99.27;103671.00;5035721;28;45395;-82
2023/02/10 10:59:21;;;;;;;;;23.75;20.25;;;;;10.70;99.38;103665.59;5021514;28;45410;-82
2023/02/10 11:01:48;;;;;;;;;21.50;14.75;;;;;10.67;100.00;103662.94;5016120;28;46909;-81
2023/02/10 11:04:19;;;;;;;;;32.75;26.25;;;;;10.70;100.00;103656.88;5027991;28;45490;-81
2023/02/10 11:06:50;;;;;;;;;24.50;19.00;;;;;10.70;99.82;103654.28;5002520;28;45490;-81
2023/02/10 11:09:27;;;;;;;;;27.50;23.00;;;;;10.70;100.00;103652.56;5003609;28;45502;-81
2023/02/10 11:11:59;;;;;;;;;24.00;20.75;;;;;10.69;100.00;103640.38;5042044;28;45331;-82
2023/02/10 11:14:27;;;;;;;;;31.50;23.50;;;;;10.83;100.00;103649.31;5036647;28;45355;-82
2023/02/10 11:16:57;;;;;;;;;29.00;21.25;;;;;10.81;100.00;103647.53;4986770;28;47116;-82
2023/02/10 11:19:28;;;;;;;;;28.75;24.75;;;;;10.77;100.00;103638.78;5011562;28;45876;-82